Time;durP1;ratioP1;P1;durP2;ratioP2;P2;SDS_P1;SDS_P2;PMS_P1;PMS_P2;Temp;Humidity;BMP_temperature;BMP_pressure;BME280_temperature;BME280_humidity;BME280_pressure;Samples;Min_cycle;Max_cycle;Signal;HPM_P1;HPM_P2
2022/08/20 00:00:46;;;;;;;8.47;7.67;;;18.80;99.90;;;;;;5055516;28;20286;-78
2022/08/20 00:03:16;;;;;;;8.30;7.60;;;18.70;99.90;;;;;;5035325;28;20262;-77
2022/08/20 00:05:46;;;;;;;8.40;7.60;;;18.70;99.90;;;;;;5030866;28;20664;-78
2022/08/20 00:08:13;;;;;;;8.03;7.27;;;18.70;99.90;;;;;;5014230;28;20721;-77
2022/08/20 00:10:43;;;;;;;8.10;7.30;;;18.70;99.90;;;;;;5015749;28;20248;-78
2022/08/20 00:13:14;;;;;;;7.63;6.93;;;18.70;99.90;;;;;;5022505;28;20206;-77
2022/08/20 00:15:42;;;;;;;7.57;6.87;;;18.70;99.90;;;;;;5035001;28;20658;-78
2022/08/20 00:18:10;;;;;;;8.00;7.20;;;18.70;99.90;;;;;;5032087;28;20208;-78
2022/08/20 00:20:40;;;;;;;8.00;7.20;;;18.60;99.90;;;;;;5033523;28;20263;-78
2022/08/20 00:23:06;;;;;;;12.53;11.63;;;18.60;99.90;;;;;;5032376;28;20273;-78
2022/08/20 00:25:33;;;;;;;9.37;8.60;;;18.60;99.90;;;;;;5034485;28;20221;-78
2022/08/20 00:28:02;;;;;;;14.07;13.07;;;18.60;99.90;;;;;;5035101;28;20193;-78
2022/08/20 00:30:30;;;;;;;9.83;9.03;;;18.60;99.90;;;;;;5031462;28;20219;-77
2022/08/20 00:33:01;;;;;;;11.80;10.90;;;18.60;99.90;;;;;;5031786;28;20193;-78
2022/08/20 00:35:31;;;;;;;12.60;11.60;;;18.60;99.90;;;;;;5023035;28;20221;-78
2022/08/20 00:37:58;;;;;;;11.93;11.03;;;18.50;99.90;;;;;;5033048;28;20567;-77
2022/08/20 00:40:28;;;;;;;7.70;7.00;;;18.50;99.90;;;;;;5034617;28;20266;-78
2022/08/20 00:42:59;;;;;;;8.10;7.40;;;18.50;99.90;;;;;;5032797;28;20225;-78
2022/08/20 00:45:29;;;;;;;15.03;13.93;;;18.40;99.90;;;;;;5034413;28;20220;-77
2022/08/20 00:47:56;;;;;;;7.47;6.77;;;18.40;99.90;;;;;;5034650;28;20242;-78
2022/08/20 00:50:34;;;;;;;8.97;8.23;;;18.40;99.90;;;;;;5032898;28;20691;-78
2022/08/20 00:53:05;;;;;;;8.33;7.63;;;18.40;99.90;;;;;;5034240;28;20188;-77
2022/08/20 00:55:33;;;;;;;7.23;6.63;;;18.40;99.90;;;;;;5027499;28;20224;-78
2022/08/20 00:58:04;;;;;;;8.90;8.10;;;18.40;99.90;;;;;;5028464;28;20204;-77
2022/08/20 01:00:36;;;;;;;7.57;6.87;;;18.40;99.90;;;;;;5031628;28;20219;-78
2022/08/20 01:03:07;;;;;;;9.87;9.00;;;18.40;99.90;;;;;;5032062;28;20251;-77
2022/08/20 01:05:36;;;;;;;7.20;6.50;;;18.30;99.90;;;;;;5034190;28;20223;-77
2022/08/20 01:08:03;;;;;;;7.10;6.43;;;18.30;99.90;;;;;;5032622;28;20255;-78
2022/08/20 01:10:36;;;;;;;6.77;6.17;;;18.30;99.90;;;;;;5034481;28;20274;-78
2022/08/20 01:13:08;;;;;;;6.97;6.27;;;18.30;99.90;;;;;;5032839;28;20745;-78
2022/08/20 01:15:38;;;;;;;7.10;6.50;;;18.30;99.90;;;;;;5030312;28;20731;-78
2022/08/20 01:18:06;;;;;;;6.80;6.20;;;18.30;99.90;;;;;;5031272;28;20227;-77
2022/08/20 01:20:39;;;;;;;7.17;6.50;;;18.20;99.90;;;;;;5032840;28;20206;-77
2022/08/20 01:23:33;;;;;;;8.93;8.23;;;18.20;99.90;;;;;;5033075;28;20799;-78
2022/08/20 01:26:05;;;;;;;8.77;8.07;;;18.20;99.90;;;;;;5029682;28;20220;-78
2022/08/20 01:28:38;;;;;;;11.00;10.20;;;18.10;99.90;;;;;;5030273;28;20259;-77
2022/08/20 01:31:06;;;;;;;7.23;6.50;;;18.10;99.90;;;;;;5030102;28;20201;-77
2022/08/20 01:33:33;;;;;;;10.67;9.70;;;18.00;99.90;;;;;;5032446;28;20231;-78
2022/08/20 01:36:01;;;;;;;8.33;7.63;;;18.10;99.90;;;;;;5031650;28;20275;-78
2022/08/20 01:38:29;;;;;;;7.73;7.03;;;18.10;99.90;;;;;;5031738;28;20266;-77
2022/08/20 01:41:25;;;;;;;6.13;5.53;;;18.10;99.90;;;;;;5033379;28;20202;-77
2022/08/20 01:43:55;;;;;;;8.23;7.60;;;18.10;99.90;;;;;;5033504;28;20254;-77
2022/08/20 01:46:24;;;;;;;6.63;6.03;;;18.10;99.90;;;;;;5031497;28;20545;-77
2022/08/20 01:48:51;;;;;;;8.73;7.93;;;18.10;99.90;;;;;;5030221;28;20197;-78
2022/08/20 01:51:22;;;;;;;7.80;7.20;;;18.00;99.90;;;;;;5031100;28;20592;-78
2022/08/20 01:53:52;;;;;;;7.30;6.70;;;18.00;99.90;;;;;;5033116;28;20233;-78
2022/08/20 01:56:24;;;;;;;8.60;7.90;;;18.00;99.90;;;;;;5031689;28;20231;-78
2022/08/20 01:58:54;;;;;;;10.70;9.90;;;18.00;99.90;;;;;;5033224;28;20196;-78
2022/08/20 02:01:29;;;;;;;6.87;6.27;;;18.00;99.90;;;;;;5032242;28;20231;-77
2022/08/20 02:03:56;;;;;;;9.77;9.00;;;17.90;99.90;;;;;;5028457;28;20711;-77
2022/08/20 02:06:25;;;;;;;9.60;8.90;;;17.90;99.90;;;;;;5030236;28;20250;-77
2022/08/20 02:08:55;;;;;;;7.50;6.90;;;17.80;99.90;;;;;;5032073;28;20204;-78
2022/08/20 02:11:24;;;;;;;8.83;8.13;;;17.80;99.90;;;;;;5032977;28;20661;-77
2022/08/20 02:13:52;;;;;;;9.67;8.80;;;17.80;99.90;;;;;;5032155;28;20188;-77
2022/08/20 02:16:21;;;;;;;8.20;7.40;;;17.80;99.90;;;;;;5028832;28;20727;-77
2022/08/20 02:18:50;;;;;;;6.73;6.03;;;17.80;99.90;;;;;;5031017;28;20206;-78
2022/08/20 02:21:18;;;;;;;7.67;6.97;;;17.80;99.90;;;;;;5020320;28;20203;-78
2022/08/20 02:23:45;;;;;;;6.40;5.83;;;17.80;99.90;;;;;;5027927;28;20273;-78
2022/08/20 02:26:12;;;;;;;6.50;5.90;;;17.80;99.90;;;;;;5032945;28;20625;-78
2022/08/20 02:28:40;;;;;;;6.60;6.00;;;17.70;99.90;;;;;;5029267;28;20248;-78
2022/08/20 02:31:07;;;;;;;7.27;6.50;;;17.80;99.90;;;;;;5029041;28;20285;-78
2022/08/20 02:33:35;;;;;;;6.63;6.03;;;17.80;99.90;;;;;;5031216;28;20207;-77
2022/08/20 02:36:02;;;;;;;6.37;5.60;;;17.80;99.90;;;;;;5028417;28;20222;-78
2022/08/20 02:38:29;;;;;;;5.80;5.30;;;17.90;99.90;;;;;;5029614;28;20348;-78
2022/08/20 02:40:56;;;;;;;7.30;6.03;;;17.90;99.90;;;;;;5029747;28;20206;-77
2022/08/20 02:43:23;;;;;;;10.67;9.87;;;17.90;99.90;;;;;;5029989;28;20596;-77
2022/08/20 02:45:51;;;;;;;13.10;11.97;;;17.90;99.90;;;;;;5030470;28;20250;-77
2022/08/20 02:48:21;;;;;;;6.93;6.23;;;18.00;99.90;;;;;;5031402;28;20584;-77
2022/08/20 02:50:55;;;;;;;10.10;9.23;;;17.90;99.90;;;;;;5031606;28;20691;-77
2022/08/20 02:53:22;;;;;;;7.23;5.90;;;18.00;99.90;;;;;;5028158;28;20196;-77
2022/08/20 02:55:50;;;;;;;10.63;9.93;;;18.00;99.90;;;;;;5029746;28;20288;-77
2022/08/20 02:58:18;;;;;;;6.20;5.60;;;18.00;99.90;;;;;;5030983;28;20204;-78
2022/08/20 03:00:45;;;;;;;7.03;5.17;;;18.00;99.90;;;;;;5032853;28;20672;-78
2022/08/20 03:03:14;;;;;;;5.30;4.83;;;18.00;99.90;;;;;;5030445;28;20306;-77
2022/08/20 03:05:43;;;;;;;8.03;7.33;;;18.00;99.90;;;;;;5032472;28;20220;-78
2022/08/20 03:08:12;;;;;;;6.60;5.70;;;18.00;99.90;;;;;;5027993;28;20617;-77
2022/08/20 03:10:41;;;;;;;5.40;4.90;;;18.00;99.90;;;;;;5027862;28;20200;-77
2022/08/20 03:13:11;;;;;;;6.77;6.17;;;18.00;99.90;;;;;;5027882;28;20295;-77
2022/08/20 03:15:39;;;;;;;6.00;5.50;;;18.00;99.90;;;;;;5030282;28;20224;-78
2022/08/20 03:18:06;;;;;;;6.27;5.67;;;18.00;99.90;;;;;;5031195;28;20688;-78
2022/08/20 03:20:34;;;;;;;6.17;5.67;;;18.00;99.90;;;;;;5030996;28;20269;-77
2022/08/20 03:23:01;;;;;;;6.10;5.50;;;18.00;99.90;;;;;;5030182;28;20719;-77
2022/08/20 03:25:28;;;;;;;8.10;7.50;;;18.00;99.90;;;;;;5032240;28;20266;-78
2022/08/20 03:27:56;;;;;;;7.27;6.57;;;18.00;99.90;;;;;;5028208;28;20238;-79
2022/08/20 03:30:25;;;;;;;9.47;8.77;;;17.90;99.90;;;;;;5036238;28;20286;-78
2022/08/20 03:32:52;;;;;;;11.57;10.77;;;17.90;99.90;;;;;;5034584;28;20216;-78
2022/08/20 03:35:21;;;;;;;6.90;6.20;;;17.90;99.90;;;;;;5032754;28;20225;-79
2022/08/20 03:37:49;;;;;;;7.13;6.53;;;17.90;99.90;;;;;;5039144;28;20212;-79
2022/08/20 03:40:22;;;;;;;9.47;8.77;;;17.90;99.90;;;;;;5037687;28;20200;-78
2022/08/20 03:42:51;;;;;;;11.20;10.40;;;17.90;99.90;;;;;;5037478;28;20200;-78
2022/08/20 03:45:19;;;;;;;8.93;8.23;;;17.90;99.90;;;;;;5039665;28;20649;-79
2022/08/20 03:47:46;;;;;;;9.33;8.63;;;17.90;99.90;;;;;;5039678;28;20230;-79
2022/08/20 03:50:13;;;;;;;9.30;8.60;;;17.80;99.90;;;;;;5036361;28;20249;-78
2022/08/20 03:52:40;;;;;;;10.00;9.20;;;17.80;99.90;;;;;;5037616;28;20212;-79
2022/08/20 03:55:09;;;;;;;11.03;10.23;;;17.80;99.90;;;;;;5022077;28;20313;-79
2022/08/20 03:57:43;;;;;;;6.70;6.10;;;17.80;99.90;;;;;;5039562;28;20192;-78
2022/08/20 04:00:12;;;;;;;12.10;11.23;;;17.80;99.90;;;;;;5029708;28;20211;-78
2022/08/20 04:02:39;;;;;;;12.93;12.03;;;17.70;99.90;;;;;;5039096;28;20246;-78
2022/08/20 04:05:07;;;;;;;10.63;9.83;;;17.70;99.90;;;;;;5038264;28;20221;-78
2022/08/20 04:07:35;;;;;;;12.87;11.97;;;17.70;99.90;;;;;;5037813;28;20619;-78
2022/08/20 04:10:08;;;;;;;11.60;10.80;;;17.70;99.90;;;;;;5038345;28;20201;-78
2022/08/20 04:12:39;;;;;;;8.73;8.03;;;17.70;99.90;;;;;;5037617;28;20200;-78
2022/08/20 04:15:08;;;;;;;10.70;9.90;;;17.70;99.90;;;;;;5022055;28;20221;-79
2022/08/20 04:17:37;;;;;;;9.00;8.30;;;17.70;99.90;;;;;;5037829;28;20665;-78
2022/08/20 04:20:05;;;;;;;11.37;10.57;;;17.70;99.90;;;;;;5033936;28;20910;-80
2022/08/20 04:22:32;;;;;;;8.30;7.57;;;17.80;99.90;;;;;;5029593;28;20251;-79
2022/08/20 04:24:59;;;;;;;7.93;7.23;;;17.80;99.90;;;;;;5032035;28;20277;-80
2022/08/20 04:27:25;;;;;;;11.10;10.30;;;17.80;99.90;;;;;;5033741;28;20665;-79
2022/08/20 04:29:54;;;;;;;7.50;6.80;;;17.80;99.90;;;;;;5034537;28;20226;-79
2022/08/20 04:32:21;;;;;;;9.17;8.20;;;17.80;99.90;;;;;;5036856;28;20267;-77
2022/08/20 04:34:50;;;;;;;12.53;11.63;;;17.80;99.90;;;;;;5034734;28;20315;-78
2022/08/20 04:37:20;;;;;;;9.90;9.13;;;17.90;99.90;;;;;;5036324;28;20207;-78
2022/08/20 04:40:52;;;;;;;12.87;11.97;;;17.90;99.90;;;;;;5036005;28;20303;-78
2022/08/20 04:42:35;;;;;;;13.77;12.77;;;17.90;99.90;;;;;;5034306;28;20203;-77
2022/08/20 04:45:06;;;;;;;13.30;12.40;;;17.90;99.90;;;;;;5026928;28;20228;-77
2022/08/20 04:47:33;;;;;;;12.60;11.80;;;17.90;99.90;;;;;;5036612;28;20256;-79
2022/08/20 04:50:00;;;;;;;9.50;8.80;;;17.90;99.90;;;;;;5037327;28;20206;-78
2022/08/20 04:52:27;;;;;;;6.60;5.97;;;17.90;99.90;;;;;;5037069;28;20200;-79
2022/08/20 04:54:55;;;;;;;6.90;6.20;;;17.90;99.90;;;;;;5035024;28;20222;-77
2022/08/20 04:57:24;;;;;;;7.23;6.20;;;18.00;99.90;;;;;;5035120;28;20234;-79
2022/08/20 04:59:51;;;;;;;6.90;6.30;;;18.00;99.90;;;;;;5025762;28;20291;-78
2022/08/20 05:02:20;;;;;;;6.67;6.07;;;18.10;99.90;;;;;;5029614;28;20200;-79
2022/08/20 05:04:47;;;;;;;7.30;6.60;;;18.20;99.90;;;;;;5035117;28;20278;-80
2022/08/20 05:07:15;;;;;;;7.53;6.90;;;18.30;99.90;;;;;;5029216;28;20611;-81
2022/08/20 05:09:42;;;;;;;6.63;6.03;;;18.30;99.90;;;;;;5032090;28;20527;-80
2022/08/20 05:12:11;;;;;;;7.17;6.53;;;18.50;99.90;;;;;;5022806;28;20197;-80
2022/08/20 05:14:37;;;;;;;9.70;9.00;;;18.60;99.90;;;;;;5027300;28;20780;-80
2022/08/20 05:17:05;;;;;;;6.67;6.00;;;18.60;99.90;;;;;;5029344;28;20200;-81
2022/08/20 05:19:36;;;;;;;6.37;5.77;;;18.60;99.90;;;;;;5033329;28;20193;-81
2022/08/20 05:22:04;;;;;;;6.93;6.10;;;18.50;99.90;;;;;;5030157;28;20690;-79
2022/08/20 05:24:31;;;;;;;6.40;5.90;;;18.50;99.90;;;;;;5026877;28;20228;-83
2022/08/20 05:26:59;;;;;;;9.53;8.83;;;18.50;99.90;;;;;;5030595;28;20196;-79
2022/08/20 05:29:27;;;;;;;6.47;5.87;;;18.50;99.90;;;;;;5024627;28;20768;-78
2022/08/20 05:31:54;;;;;;;6.97;5.93;;;18.50;99.90;;;;;;5031721;28;20640;-78
2022/08/20 05:34:21;;;;;;;6.33;5.80;;;18.50;99.90;;;;;;5031039;28;20217;-83
2022/08/20 05:36:51;;;;;;;6.40;5.80;;;18.60;99.90;;;;;;5033390;28;20260;-78
2022/08/20 05:39:20;;;;;;;6.43;5.93;;;18.60;99.90;;;;;;5024735;28;20745;-78
2022/08/20 05:41:48;;;;;;;6.27;5.77;;;18.70;99.90;;;;;;5033782;28;20280;-79
2022/08/20 05:44:15;;;;;;;6.53;5.93;;;18.70;99.90;;;;;;5032828;28;20324;-78
2022/08/20 05:46:44;;;;;;;6.37;5.80;;;18.70;99.90;;;;;;5033383;28;20227;-78
2022/08/20 05:49:14;;;;;;;7.00;6.30;;;18.70;99.90;;;;;;5031103;28;20204;-79
2022/08/20 05:51:41;;;;;;;6.23;5.73;;;18.70;99.90;;;;;;5032136;28;20237;-78
2022/08/20 05:54:09;;;;;;;6.50;5.90;;;18.80;99.90;;;;;;5031894;28;20192;-78
2022/08/20 05:56:36;;;;;;;6.27;5.73;;;18.90;99.90;;;;;;5033112;28;20209;-79
2022/08/20 05:59:05;;;;;;;6.80;6.20;;;18.90;99.90;;;;;;5032751;28;20197;-78
2022/08/20 06:01:34;;;;;;;5.93;5.43;;;19.10;99.90;;;;;;5030751;28;20202;-78
2022/08/20 06:06:45;;;;;;;14.20;13.20;;;19.40;99.90;;;;;;5032777;28;20482;-78
2022/08/20 06:09:14;;;;;;;12.27;11.47;;;19.50;99.90;;;;;;5030038;28;20203;-78
2022/08/20 06:11:41;;;;;;;9.37;8.67;;;19.70;99.90;;;;;;5033613;28;20214;-78
2022/08/20 06:14:08;;;;;;;11.77;10.77;;;19.90;99.90;;;;;;5029106;28;20632;-78
2022/08/20 06:16:35;;;;;;;7.27;6.47;;;20.20;99.90;;;;;;5031037;28;20202;-79
2022/08/20 06:19:01;;;;;;;6.97;6.27;;;20.40;99.90;;;;;;5031578;28;20195;-78
2022/08/20 06:21:28;;;;;;;7.67;7.03;;;20.50;99.90;;;;;;5030742;28;20195;-79
2022/08/20 06:23:55;;;;;;;9.40;8.70;;;20.60;99.90;;;;;;5030878;28;20264;-79
2022/08/20 06:26:23;;;;;;;9.73;9.03;;;20.70;99.90;;;;;;5033991;28;20199;-79
2022/08/20 06:28:50;;;;;;;7.90;7.20;;;20.70;99.90;;;;;;5033007;28;20278;-79
2022/08/20 06:31:17;;;;;;;9.73;9.03;;;20.70;99.90;;;;;;5029078;28;20203;-79
2022/08/20 06:33:44;;;;;;;6.67;5.87;;;20.70;99.90;;;;;;5030418;28;20204;-79
2022/08/20 06:36:10;;;;;;;11.33;10.53;;;20.80;99.90;;;;;;5023341;28;20220;-78
2022/08/20 06:38:37;;;;;;;8.10;7.40;;;20.80;99.90;;;;;;5032064;28;20230;-79
2022/08/20 06:41:04;;;;;;;5.87;5.37;;;20.80;99.90;;;;;;5031504;28;20208;-78
2022/08/20 06:43:32;;;;;;;9.20;8.50;;;20.90;99.90;;;;;;5033253;28;20235;-79
2022/08/20 06:46:01;;;;;;;9.50;8.60;;;20.90;99.90;;;;;;5031535;28;20211;-78
2022/08/20 06:48:27;;;;;;;8.53;7.83;;;20.80;99.90;;;;;;5030865;28;20265;-79
2022/08/20 06:50:54;;;;;;;6.50;6.00;;;20.90;99.90;;;;;;5027836;28;20199;-80
2022/08/20 06:53:21;;;;;;;5.93;5.43;;;21.00;99.90;;;;;;5026276;28;20672;-78
2022/08/20 06:55:51;;;;;;;5.73;5.23;;;21.10;99.90;;;;;;5031114;28;20282;-78
2022/08/20 06:58:20;;;;;;;6.90;6.30;;;21.10;99.90;;;;;;5032259;28;20262;-79
2022/08/20 07:00:49;;;;;;;6.97;5.50;;;21.10;99.90;;;;;;5029243;28;20275;-78
2022/08/20 07:03:16;;;;;;;6.53;5.93;;;21.20;99.90;;;;;;5032686;28;20204;-79
2022/08/20 07:05:44;;;;;;;6.43;5.83;;;21.30;99.90;;;;;;5035394;28;20227;-79
2022/08/20 07:08:13;;;;;;;12.03;11.13;;;21.40;99.90;;;;;;5032062;28;20601;-79
2022/08/20 07:10:41;;;;;;;10.33;9.63;;;21.50;99.90;;;;;;5033013;28;20224;-78
2022/08/20 07:13:08;;;;;;;9.20;8.50;;;21.60;99.90;;;;;;5036520;28;20291;-79
2022/08/20 07:15:35;;;;;;;7.93;7.23;;;21.60;99.90;;;;;;5030124;28;20334;-81
2022/08/20 07:18:05;;;;;;;9.57;8.77;;;21.60;99.90;;;;;;5035559;28;20326;-81
2022/08/20 07:20:34;;;;;;;11.53;10.73;;;21.60;99.90;;;;;;5031607;28;20192;-81
2022/08/20 07:23:02;;;;;;;12.07;11.27;;;21.50;99.90;;;;;;5032113;28;20204;-79
2022/08/20 07:25:32;;;;;;;6.40;5.80;;;21.50;99.90;;;;;;5033103;28;20233;-78
2022/08/20 07:28:03;;;;;;;6.63;6.13;;;21.50;99.90;;;;;;5034007;28;20286;-80
2022/08/20 07:33:16;;;;;;;6.30;5.70;;;21.60;99.90;;;;;;5030225;28;20204;-79
2022/08/20 07:35:47;;;;;;;8.77;7.97;;;21.60;99.90;;;;;;5029781;28;20575;-79
2022/08/20 07:38:22;;;;;;;9.73;8.93;;;21.60;99.90;;;;;;5028424;28;20199;-79
2022/08/20 07:40:49;;;;;;;8.10;7.47;;;21.60;99.90;;;;;;5031080;28;20203;-80
2022/08/20 07:43:16;;;;;;;6.07;5.57;;;21.70;99.90;;;;;;5031175;28;20207;-78
2022/08/20 07:45:43;;;;;;;5.83;5.33;;;21.70;99.90;;;;;;5033255;28;20575;-78
2022/08/20 07:48:12;;;;;;;6.30;5.70;;;21.80;99.90;;;;;;5026770;28;20199;-78
2022/08/20 07:50:41;;;;;;;5.87;5.37;;;21.90;99.90;;;;;;5034598;28;20199;-78
2022/08/20 07:53:08;;;;;;;5.90;5.30;;;22.10;99.90;;;;;;5033150;28;20200;-79
2022/08/20 07:55:35;;;;;;;6.00;5.50;;;22.10;99.90;;;;;;4997296;28;1085525;-80
2022/08/20 07:58:09;;;;;;;6.23;5.60;;;22.20;99.90;;;;;;5037200;28;20199;-81
2022/08/20 08:00:36;;;;;;;6.23;5.73;;;22.20;99.90;;;;;;5034817;28;20195;-79
2022/08/20 08:03:03;;;;;;;6.90;6.30;;;22.30;99.90;;;;;;5036196;28;20660;-79
2022/08/20 08:05:31;;;;;;;5.30;4.80;;;22.40;99.90;;;;;;5034856;28;20757;-78
2022/08/20 08:07:59;;;;;;;8.73;8.00;;;22.50;99.90;;;;;;5035077;28;20271;-78
2022/08/20 08:10:26;;;;;;;5.93;5.33;;;22.60;99.90;;;;;;5034441;28;20219;-79
2022/08/20 08:12:57;;;;;;;5.97;5.47;;;22.90;99.90;;;;;;5033647;28;20270;-79
2022/08/20 08:15:30;;;;;;;6.90;5.67;;;23.10;99.90;;;;;;5030788;28;20657;-79
2022/08/20 08:18:00;;;;;;;13.00;12.10;;;23.30;99.90;;;;;;5034463;28;20196;-79
2022/08/20 08:20:26;;;;;;;13.13;12.27;;;23.60;99.90;;;;;;5034403;28;20203;-80
2022/08/20 08:22:53;;;;;;;9.80;8.90;;;23.40;99.90;;;;;;5025538;28;20199;-79
2022/08/20 08:25:22;;;;;;;13.13;12.33;;;23.40;99.90;;;;;;5036084;28;20219;-79
2022/08/20 08:27:48;;;;;;;6.53;5.93;;;23.60;99.90;;;;;;5035206;28;20196;-79
2022/08/20 08:30:16;;;;;;;5.97;5.40;;;23.60;99.90;;;;;;5034250;28;20227;-78
2022/08/20 08:35:24;;;;;;;7.20;5.70;;;23.70;99.90;;;;;;5030555;28;20215;-79
2022/08/20 08:37:52;;;;;;;6.03;5.53;;;23.80;99.90;;;;;;5032947;28;20724;-80
2022/08/20 08:40:20;;;;;;;7.93;7.33;;;23.90;99.90;;;;;;5035725;28;20699;-81
2022/08/20 08:42:54;;;;;;;8.20;7.47;;;24.00;99.90;;;;;;5031537;28;20203;-82
2022/08/20 08:45:21;;;;;;;9.20;8.57;;;24.00;99.90;;;;;;5035670;28;20220;-82
2022/08/20 08:47:48;;;;;;;9.70;9.00;;;24.00;99.90;;;;;;5033550;28;20480;-82
2022/08/20 08:50:22;;;;;;;9.23;8.53;;;24.10;99.90;;;;;;5033970;28;20204;-79
2022/08/20 08:52:52;;;;;;;10.83;10.13;;;24.00;99.90;;;;;;5032626;28;20210;-79
2022/08/20 08:55:21;;;;;;;12.07;11.27;;;24.30;99.90;;;;;;5026261;28;20310;-79
2022/08/20 08:57:53;;;;;;;10.60;9.90;;;24.60;99.90;;;;;;5034721;28;20249;-79
2022/08/20 09:00:22;;;;;;;9.80;9.20;;;24.70;99.90;;;;;;5034347;28;20605;-81
2022/08/20 09:02:58;;;;;;;12.07;11.27;;;24.50;99.90;;;;;;5031231;28;20273;-79
2022/08/20 09:05:32;;;;;;;8.63;8.03;;;24.70;99.90;;;;;;5024302;28;20238;-79
2022/08/20 09:08:02;;;;;;;8.70;8.10;;;24.80;99.90;;;;;;5022426;28;20201;-80
2022/08/20 09:10:29;;;;;;;10.50;9.70;;;24.80;99.90;;;;;;5031509;28;20188;-79
2022/08/20 09:12:58;;;;;;;9.93;9.23;;;24.90;99.90;;;;;;5032269;28;20250;-79
2022/08/20 09:15:25;;;;;;;8.00;7.40;;;24.90;99.90;;;;;;5019153;28;20240;-80
2022/08/20 09:17:52;;;;;;;8.10;7.30;;;24.80;99.90;;;;;;5022877;28;20259;-80
2022/08/20 09:20:19;;;;;;;8.20;7.60;;;24.60;99.90;;;;;;5033570;28;20199;-79
2022/08/20 09:22:46;;;;;;;8.63;8.03;;;24.60;99.90;;;;;;5020667;28;20204;-80
2022/08/20 09:25:13;;;;;;;7.30;6.70;;;24.70;99.90;;;;;;5031472;28;20242;-80
2022/08/20 09:27:40;;;;;;;7.63;6.70;;;24.80;99.90;;;;;;5024961;28;20267;-79
2022/08/20 09:30:09;;;;;;;7.67;7.07;;;25.00;99.90;;;;;;5034337;28;20204;-80
2022/08/20 09:32:36;;;;;;;7.80;7.20;;;25.10;99.90;;;;;;5031485;28;20711;-80
2022/08/20 09:35:03;;;;;;;9.63;8.87;;;25.60;99.90;;;;;;5030878;28;20226;-80
2022/08/20 09:37:32;;;;;;;10.17;9.47;;;26.00;99.90;;;;;;5031457;28;20192;-80
2022/08/20 09:39:59;;;;;;;12.03;11.20;;;25.70;99.90;;;;;;5033037;28;20224;-79
2022/08/20 09:42:28;;;;;;;7.13;6.63;;;25.50;99.90;;;;;;5030320;28;20204;-79
2022/08/20 09:44:55;;;;;;;4.70;3.33;;;25.20;99.90;;;;;;5031131;28;20448;-80
2022/08/20 09:47:24;;;;;;;4.13;3.50;;;25.00;99.90;;;;;;5028305;28;20246;-79
2022/08/20 09:49:51;;;;;;;3.60;3.30;;;25.10;99.90;;;;;;5018544;28;20200;-80
2022/08/20 09:52:22;;;;;;;3.43;3.00;;;25.50;99.90;;;;;;5030568;28;20199;-81
2022/08/20 09:54:50;;;;;;;3.50;3.13;;;25.80;99.90;;;;;;5034755;28;20239;-80
2022/08/20 09:57:17;;;;;;;6.10;3.70;;;26.10;99.90;;;;;;5034621;28;20192;-80
2022/08/20 09:59:45;;;;;;;4.73;4.33;;;26.60;99.90;;;;;;5026243;28;20627;-81
2022/08/20 10:02:12;;;;;;;5.67;5.17;;;27.00;99.90;;;;;;5025572;28;20741;-81
2022/08/20 10:04:40;;;;;;;9.67;8.97;;;27.30;99.90;;;;;;5030813;28;20638;-80
2022/08/20 10:07:08;;;;;;;11.57;10.87;;;27.10;99.90;;;;;;5033737;28;20250;-81
2022/08/20 10:09:35;;;;;;;5.03;4.63;;;27.00;99.90;;;;;;5028459;28;20295;-81
2022/08/20 10:12:02;;;;;;;4.93;4.53;;;27.10;99.90;;;;;;5033488;28;20200;-80
2022/08/20 10:14:29;;;;;;;5.17;4.67;;;27.30;99.90;;;;;;5033526;28;20473;-82
2022/08/20 10:16:57;;;;;;;11.30;10.60;;;27.70;99.90;;;;;;5029526;28;20203;-80
2022/08/20 10:19:24;;;;;;;4.33;4.03;;;28.20;99.90;;;;;;5038526;28;20208;-80
2022/08/20 10:21:53;;;;;;;9.20;8.57;;;28.70;99.90;;;;;;5029445;28;20204;-80
2022/08/20 10:24:21;;;;;;;9.37;8.77;;;28.60;99.90;;;;;;5032197;28;20247;-80
2022/08/20 10:26:48;;;;;;;10.20;9.60;;;28.30;99.90;;;;;;5025040;28;20216;-81
2022/08/20 10:29:15;;;;;;;6.07;3.80;;;27.80;99.90;;;;;;5021545;28;20583;-80
2022/08/20 10:31:42;;;;;;;3.30;3.10;;;27.30;99.90;;;;;;5019061;28;20204;-80
2022/08/20 10:34:09;;;;;;;9.80;9.10;;;26.60;99.90;;;;;;5031940;28;20192;-82
2022/08/20 10:36:36;;;;;;;9.30;8.70;;;26.00;99.90;;;;;;5033121;28;20196;-81
2022/08/20 10:39:05;;;;;;;10.00;9.30;;;25.50;99.90;;;;;;5025645;28;20208;-80
2022/08/20 10:41:31;;;;;;;9.40;8.80;;;25.30;99.90;;;;;;5032784;28;20785;-79
2022/08/20 10:43:58;;;;;;;9.80;9.10;;;25.20;99.90;;;;;;5032196;28;20196;-79
2022/08/20 10:46:25;;;;;;;9.57;8.97;;;25.10;99.90;;;;;;5034260;28;20231;-80
2022/08/20 10:48:52;;;;;;;9.60;8.90;;;24.90;99.90;;;;;;5034444;28;20203;-80
2022/08/20 10:51:19;;;;;;;9.37;8.73;;;24.80;99.90;;;;;;5034640;28;20204;-79
2022/08/20 10:53:45;;;;;;;9.50;8.90;;;24.60;99.90;;;;;;5036328;28;20231;-79
2022/08/20 10:56:13;;;;;;;9.67;9.07;;;24.50;99.90;;;;;;5034605;28;20278;-80
2022/08/20 10:58:40;;;;;;;9.40;8.80;;;24.40;99.90;;;;;;5033725;28;20242;-80
2022/08/20 11:01:07;;;;;;;8.93;8.43;;;24.10;99.90;;;;;;5034627;28;20254;-80
2022/08/20 11:03:34;;;;;;;8.70;8.20;;;23.90;99.90;;;;;;5035604;28;20695;-79
2022/08/20 11:06:01;;;;;;;8.90;8.30;;;23.80;99.90;;;;;;5027855;28;20215;-81
2022/08/20 11:08:28;;;;;;;8.77;8.27;;;23.50;99.90;;;;;;5015980;28;20576;-80
2022/08/20 11:10:55;;;;;;;8.70;8.13;;;23.30;99.90;;;;;;5019720;28;20227;-80
2022/08/20 11:13:23;;;;;;;9.10;8.50;;;23.20;99.90;;;;;;5033121;28;20664;-79
2022/08/20 11:15:50;;;;;;;8.60;8.10;;;23.20;99.90;;;;;;5026402;28;20223;-80
2022/08/20 11:18:17;;;;;;;8.47;7.97;;;23.10;99.90;;;;;;5029852;28;20199;-80
2022/08/20 11:20:44;;;;;;;9.30;8.70;;;23.00;99.90;;;;;;5031808;28;20212;-79
2022/08/20 11:23:13;;;;;;;9.60;8.83;;;22.80;99.90;;;;;;5024543;28;20559;-80
2022/08/20 11:25:40;;;;;;;9.50;8.80;;;22.80;99.90;;;;;;5031859;28;20220;-80
2022/08/20 11:28:06;;;;;;;9.50;8.80;;;22.60;99.90;;;;;;5033772;28;20635;-81
2022/08/20 11:30:36;;;;;;;9.93;9.03;;;22.50;99.90;;;;;;5033317;28;20254;-79
2022/08/20 11:33:04;;;;;;;10.07;9.37;;;22.10;99.90;;;;;;5030731;28;20200;-79
2022/08/20 11:35:34;;;;;;;9.83;9.07;;;21.90;99.90;;;;;;5031654;28;20306;-79
2022/08/20 11:38:01;;;;;;;9.70;8.80;;;21.60;99.90;;;;;;5030950;28;20265;-79
2022/08/20 11:40:30;;;;;;;9.60;9.00;;;21.30;99.90;;;;;;5027307;28;20204;-81
2022/08/20 11:42:57;;;;;;;9.23;8.50;;;21.20;99.90;;;;;;5029013;28;20699;-80
2022/08/20 11:45:24;;;;;;;8.83;8.33;;;21.10;99.90;;;;;;5025213;28;20227;-79
2022/08/20 11:47:52;;;;;;;3.55;3.35;;;21.00;99.90;;;;;;5033360;28;20433;-80
2022/08/20 11:50:21;;;;;;;9.50;8.90;;;21.00;99.90;;;;;;5033273;28;20687;-80
2022/08/20 11:52:48;;;;;;;5.38;5.07;;;21.00;99.90;;;;;;5031034;28;20441;-78
2022/08/20 11:55:16;;;;;;;5.77;5.47;;;21.00;99.90;;;;;;5033186;28;20285;-79
2022/08/20 11:57:45;;;;;;;7.27;6.57;;;21.00;99.90;;;;;;5033454;28;20200;-79
2022/08/20 12:00:16;;;;;;;4.33;4.03;;;21.00;99.90;;;;;;5041384;28;20597;-79
2022/08/20 12:02:43;;;;;;;3.27;2.70;;;21.10;99.90;;;;;;5023312;28;20670;-79
2022/08/20 12:05:12;;;;;;;9.40;8.70;;;21.10;99.90;;;;;;5035111;28;20227;-81
2022/08/20 12:07:39;;;;;;;9.33;8.73;;;21.20;99.90;;;;;;5023564;28;20250;-82
2022/08/20 12:10:08;;;;;;;5.63;5.23;;;21.40;99.90;;;;;;5034365;28;20196;-81
2022/08/20 12:12:37;;;;;;;3.10;2.77;;;21.40;99.90;;;;;;5021447;28;20203;-81
2022/08/20 12:15:06;;;;;;;3.23;2.90;;;21.50;99.90;;;;;;5033056;28;20469;-81
2022/08/20 12:17:32;;;;;;;3.60;3.30;;;21.60;99.90;;;;;;5028457;28;20183;-78
2022/08/20 12:20:01;;;;;;;3.03;2.83;;;21.70;99.90;;;;;;5031534;28;20449;-82
2022/08/20 12:22:30;;;;;;;2.97;2.67;;;21.60;99.90;;;;;;5029518;28;20437;-81
2022/08/20 12:24:57;;;;;;;8.80;8.20;;;21.70;99.90;;;;;;5027090;28;20215;-81
2022/08/20 12:27:26;;;;;;;3.63;3.33;;;21.80;99.90;;;;;;5029517;28;20559;-82
2022/08/20 12:29:55;;;;;;;2.80;2.60;;;21.80;99.90;;;;;;5033285;28;20208;-81
2022/08/20 12:32:23;;;;;;;7.77;7.17;;;21.90;99.90;;;;;;5033485;28;20254;-82
2022/08/20 12:34:50;;;;;;;7.40;6.90;;;21.90;99.90;;;;;;5033210;28;20716;-83
2022/08/20 12:37:19;;;;;;;5.10;4.60;;;22.10;99.90;;;;;;5034765;28;20199;-82
2022/08/20 12:39:57;;;;;;;3.10;2.90;;;22.20;99.90;;;;;;5033327;28;20200;-82
2022/08/20 12:42:25;;;;;;;7.23;6.83;;;22.40;99.90;;;;;;5033807;28;20265;-82
2022/08/20 12:44:52;;;;;;;8.00;7.50;;;22.50;99.90;;;;;;5033030;28;20216;-82
2022/08/20 12:47:23;;;;;;;8.10;7.60;;;22.60;99.90;;;;;;5029220;28;20226;-82
2022/08/20 12:49:52;;;;;;;3.00;2.70;;;22.70;99.90;;;;;;5032930;28;20231;-82
2022/08/20 12:52:21;;;;;;;3.07;2.77;;;22.70;99.90;;;;;;5026371;28;20223;-82
2022/08/20 12:54:49;;;;;;;5.27;4.00;;;22.70;99.90;;;;;;5031278;28;20228;-82
2022/08/20 12:57:22;;;;;;;3.93;3.67;;;22.90;99.90;;;;;;5030336;28;20249;-82